Granger, Indiana
Current Conditions -  °F | °C
As of 12:16 AM on Tuesday 23 Dec 2014 (Local Time) from KSBN Reporting Station
Haze Haze  
Wind Chill: 32°   Ceiling: 2900
Heat Index: 39°   Visibility: 5mi
Dew Point: 37°   Wind: 12mph
Humidity: 93%   Direction: 110°ESE
Pressure: 29.68"   Gusts: NA
Location:  41.75°N, 86.13°W
Report Text: KSBN 230516Z AUTO 11010KT 5SM BR OVC029 04/03 A2968 RMK AO2 RAE16 P0000 T00390028
Loading
Personal Weather Stations






























Interactive Weather Map New forecast layout! Learn more

10-Day Weather Forecast

Advertisements
Track Severe Weather on mobile